Latest Weather Observations for Perth Airport

IDW60901

Issued at 2:41 am WST Friday 24 November 2017 (issued every 10 minutes, with the page automatically refreshed every 10 minutes)

About weather observations | Map of Perth area stations | Latest observations for Perth area | Other Formats
Station Details ID: 009021 Name: PERTH AIRPORT Lat: -31.93 Lon: 115.98 Height: 15.4 m
Data from the previous 72 hours. | See also: Recent months at Perth Airport
Date/Time
WST
Temp
°C
App
Temp
°C
Dew
Point
°C
Rel
Hum
%
Delta-T
°C
Wind Press
QNH
hPa
Press
MSL
hPa
Rain since
9am
mm
Dir  Spd
km/h
Gust
km/h
Spd
kts
Gust
kts
24/02:30am 17.2 15.2 4.3 42 6.1 WNW 4 7 2 4 1010.8 1010.7 0.0
24/02:00am 13.9 13.3 8.8 71 2.6 W 2 7 1 4 1011.1 1011.0 0.0
24/01:30am 14.9 14.0 9.3 69 2.9 NNE 4 9 2 5 1011.3 1011.2 0.0
24/01:00am 15.0 13.1 9.1 68 3.0 SSE 9 17 5 9 1011.6 1011.5 0.0
24/12:30am 15.0 13.1 8.9 67 3.1 SSW 9 11 5 6 1012.0 1011.9 0.0
24/12:00am 16.4 14.1 9.0 61 3.8 SSW 11 13 6 7 1012.3 1012.2 0.0
 
Date/Time
WST
Temp
°C
App
Temp
°C
Dew
Point
°C
Rel
Hum
%
Delta-T
°C
Wind Press
QNH
hPa
Press
MSL
hPa
Rain since
9am
mm
Dir  Spd
km/h
Gust
km/h
Spd
kts
Gust
kts
23/11:30pm 18.4 15.8 9.5 56 4.7 SSW 13 17 7 9 1012.3 1012.2 0.0
23/11:00pm 19.8 16.9 8.2 47 6.0 S 13 15 7 8 1012.7 1012.6 0.0
23/10:30pm 20.5 17.6 8.2 45 6.4 SSW 13 19 7 10 1012.9 1012.8 0.0
23/10:00pm 20.8 17.5 8.1 44 6.6 S 15 20 8 11 1013.0 1012.9 0.0
23/09:30pm 21.9 16.8 7.7 40 7.4 SSW 24 32 13 17 1013.3 1013.3 0.0
23/09:00pm 22.7 16.8 7.3 37 8.0 S 28 33 15 18 1013.5 1013.5 0.0
23/08:30pm 23.2 16.5 7.5 36 8.2 SSW 32 39 17 21 1013.4 1013.4 0.0
23/08:00pm 23.8 19.2 8.2 37 8.3 SSW 22 30 12 16 1013.2 1013.2 0.0
23/07:30pm 24.6 19.4 7.2 32 9.1 SSW 24 30 13 16 1013.1 1013.1 0.0
23/07:00pm 25.4 19.5 6.0 28 10.0 SSW 26 30 14 16 1012.9 1012.8 0.0
23/06:30pm 26.3 20.2 6.4 28 10.4 SSW 28 35 15 19 1012.5 1012.4 0.0
23/06:00pm 27.3 21.8 7.5 28 10.6 SW 26 33 14 18 1012.3 1012.2 0.0
23/05:30pm 28.0 21.0 5.8 24 11.6 SW 32 39 17 21 1012.2 1012.1 0.0
23/05:00pm 29.1 22.8 5.9 23 12.2 WSW 28 33 15 18 1012.2 1012.1 0.0
23/04:30pm 30.2 24.3 5.8 21 12.9 WSW 26 37 14 20 1012.1 1012.0 0.0
23/04:00pm 30.8 24.4 5.3 20 13.4 SW 28 35 15 19 1012.2 1012.1 0.0
23/03:30pm 31.6 26.9 1.2 14 15.0 WSW 15 35 8 19 1012.2 1012.1 0.0
23/03:00pm 31.1 26.6 -0.1 13 15.0 NE 13 22 7 12 1012.8 1012.7 0.0
23/02:30pm 31.2 27.4 1.8 15 14.6 ESE 11 24 6 13 1013.2 1013.2 0.0
23/02:00pm 30.9 26.8 2.3 16 14.3 SSE 13 24 7 13 1013.7 1013.7 0.0
23/01:30pm 30.5 26.5 2.9 17 13.9 SE 13 26 7 14 1014.1 1014.1 0.0
23/01:00pm 30.1 26.0 2.0 16 13.9 SE 13 24 7 13 1014.5 1014.5 0.0
23/12:30pm 29.1 25.4 2.1 17 13.3 S 11 26 6 14 1014.9 1014.9 0.0
23/12:00pm 29.3 25.1 3.6 19 13.0 ESE 15 22 8 12 1015.1 1015.1 0.0
23/11:30am 28.3 23.9 4.7 22 12.1 E 17 32 9 17 1015.4 1015.4 0.0
23/11:00am 28.2 23.7 6.1 24 11.6 E 19 32 10 17 1015.8 1015.8 0.0
23/10:30am 26.7 22.7 6.7 28 10.5 ENE 17 30 9 16 1016.3 1016.3 0.0
23/10:00am 25.5 20.5 6.4 29 9.9 E 22 32 12 17 1016.7 1016.7 0.0
23/09:30am 23.8 18.0 6.2 32 9.0 E 26 32 14 17 1016.9 1016.9 0.0
23/09:00am 22.9 16.5 7.0 36 8.2 E 30 39 16 21 1017.4 1017.4 0.0
23/08:30am 20.8 14.8 7.1 41 7.0 E 28 37 15 20 1017.7 1017.7 0.0
23/08:00am 19.4 14.1 6.6 43 6.4 ENE 24 35 13 19 1017.9 1017.9 0.0
23/07:30am 17.7 12.4 6.6 48 5.5 ENE 24 39 13 21 1017.8 1017.8 0.0
23/07:00am 16.4 10.6 6.1 50 5.0 E 26 39 14 21 1017.6 1017.6 0.0
23/06:30am 15.5 10.1 6.2 54 4.5 E 24 37 13 20 1017.5 1017.5 0.0
23/06:00am 14.9 10.4 6.2 56 4.2 ESE 19 32 10 17 1017.2 1017.2 0.0
23/05:30am 14.5 9.8 6.2 57 4.0 E 20 37 11 20 1017.0 1017.0 0.0
23/05:00am 14.7 11.0 6.2 56 4.1 E 15 26 8 14 1016.9 1016.9 0.0
23/04:30am 15.1 10.4 5.9 54 4.4 E 20 35 11 19 1016.8 1016.8 0.0
23/04:00am 15.5 12.1 5.9 52 4.6 E 13 19 7 10 1016.6 1016.6 0.0
23/03:30am 16.2 13.1 5.6 49 5.1 E 11 20 6 11 1016.4 1016.4 0.0
23/03:00am 16.6 12.4 5.6 48 5.3 E 17 37 9 20 1016.2 1016.2 0.0
23/02:30am 17.3 12.4 5.2 45 5.8 E 20 32 11 17 1016.0 1016.0 0.0
23/02:00am 18.0 11.9 4.9 42 6.3 E 26 37 14 20 1015.8 1015.8 0.0
23/01:38am 18.4 11.9 4.6 40 6.6 E 28 46 15 25 1015.9 1015.9 0.0
23/01:30am 18.7 11.7 4.2 38 6.9 E 30 46 16 25 1015.8 1015.8 0.0
23/01:00am 19.3 13.0 3.6 35 7.4 E 26 35 14 19 1016.1 1016.1 0.0
23/12:47am 19.6 12.4 3.2 33 7.7 E 30 48 16 26 1016.1 1016.1 0.0
23/12:30am 19.5 13.7 2.4 32 7.9 E 22 37 12 20 1016.2 1016.2 0.0
23/12:00am 18.2 13.4 2.8 35 7.1 E 17 26 9 14 1016.3 1016.3 0.0
 
Date/Time
WST
Temp
°C
App
Temp
°C
Dew
Point
°C
Rel
Hum
%
Delta-T
°C
Wind Press
QNH
hPa
Press
MSL
hPa
Rain since
9am
mm
Dir  Spd
km/h
Gust
km/h
Spd
kts
Gust
kts
22/11:30pm 13.4 11.9 10.5 82 1.5 E 9 13 5 7 1016.4 1016.4 0.0
22/11:00pm 14.7 13.5 11.5 81 1.7 S 9 11 5 6 1016.6 1016.6 0.0
22/10:30pm 16.6 15.0 11.4 71 2.8 SSW 11 13 6 7 1016.8 1016.8 0.0
22/10:00pm 18.7 16.4 11.8 64 3.8 S 15 19 8 10 1016.8 1016.8 0.0
22/09:30pm 19.8 17.1 11.6 59 4.5 S 17 22 9 12 1016.9 1016.9 0.0
22/09:00pm 20.3 18.1 12.1 59 4.6 SSW 15 19 8 10 1016.8 1016.8 0.0
22/08:30pm 21.3 18.6 11.8 54 5.3 SSW 17 22 9 12 1016.5 1016.5 0.0
22/08:00pm 21.9 18.7 11.3 51 5.9 SSW 19 22 10 12 1016.1 1016.1 0.0
22/07:30pm 22.2 19.5 10.3 46 6.5 SW 15 17 8 9 1015.9 1015.9 0.0
22/07:00pm 24.6 20.9 4.2 26 10.1 SE 13 15 7 8 1015.8 1015.8 0.0
22/06:30pm 27.2 21.8 -1.2 15 13.0 SE 17 20 9 11 1015.5 1015.5 0.0
22/06:00pm 27.7 21.5 -3.2 13 13.7 ESE 20 26 11 14 1015.3 1015.3 0.0
22/05:30pm 28.9 22.7 -2.8 12 14.3 SE 20 30 11 16 1015.2 1015.2 0.0
22/05:00pm 29.0 23.1 -5.3 10 14.8 E 17 32 9 17 1015.2 1015.2 0.0
22/04:30pm 29.3 23.0 -4.3 11 14.8 SE 20 30 11 16 1015.3 1015.3 0.0
22/04:00pm 29.1 23.5 -3.3 12 14.5 SE 17 26 9 14 1015.6 1015.6 0.0
22/03:30pm 29.6 22.6 -3.4 11 14.8 SE 24 30 13 16 1015.7 1015.7 0.0
22/03:00pm 28.9 24.8 -3.4 12 14.4 E 9 26 5 14 1016.1 1016.1 0.0
22/02:30pm 27.9 21.9 -2.7 13 13.7 E 19 33 10 18 1016.3 1016.3 0.0
22/02:00pm 27.9 21.7 -4.8 11 14.1 ESE 19 32 10 17 1016.6 1016.6 0.0
22/01:30pm 27.5 21.8 -3.8 12 13.7 E 17 33 9 18 1017.0 1017.0 0.0
22/01:00pm 27.5 22.1 -1.4 15 13.2 E 17 28 9 15 1017.4 1017.4 0.0
22/12:30pm 26.3 20.3 -1.7 16 12.6 E 20 35 11 19 1017.8 1017.8 0.0
22/12:00pm 25.7 20.3 -1.4 16 12.2 ENE 17 30 9 16 1018.4 1018.4 0.0
22/11:30am 25.0 19.3 -0.5 18 11.6 E 19 28 10 15 1019.1 1019.1 0.0
22/11:00am 23.5 17.8 0.3 21 10.6 E 20 32 11 17 1019.5 1019.5 0.0
22/10:30am 22.9 17.2 0.5 22 10.2 E 20 30 11 16 1020.1 1020.1 0.0
22/10:00am 21.7 14.9 1.1 25 9.4 E 26 35 14 19 1020.3 1020.3 0.0
22/09:30am 20.9 15.3 3.4 31 8.3 ESE 22 32 12 17 1020.5 1020.5 0.0
22/09:00am 19.9 13.8 3.0 32 7.9 ESE 24 43 13 23 1020.7 1020.7 0.0
22/08:30am 18.2 11.4 3.0 36 7.0 ENE 28 39 15 21 1021.0 1021.0 0.0
22/08:00am 17.5 11.6 3.8 40 6.4 E 24 33 13 18 1020.9 1020.9 0.0
22/07:30am 16.5 7.9 4.6 45 5.6 E 39 59 21 32 1020.4 1020.4 0.0
22/07:00am 15.3 5.0 4.8 49 4.9 E 48 67 26 36 1020.2 1020.2 0.0
22/06:53am 15.0 5.1 4.7 50 4.8 E 46 67 25 36 1020.2 1020.2 0.0
22/06:30am 14.6 3.9 4.7 51 4.6 E 50 65 27 35 1019.9 1019.9 0.0
22/06:00am 13.9 3.6 4.8 54 4.2 E 48 65 26 35 1019.9 1019.9 0.0
22/05:35am 13.6 4.6 4.7 55 4.1 E 41 59 22 32 1019.8 1019.8 0.0
22/05:30am 13.5 4.5 4.8 55 4.0 E 41 56 22 30 1019.8 1019.8 0.0
22/05:16am 13.6 4.6 4.7 55 4.1 E 41 59 22 32 1019.7 1019.7 0.0
22/05:00am 13.7 5.1 4.6 54 4.2 E 39 56 21 30 1019.9 1019.9 0.0
22/04:33am 14.0 5.0 4.4 52 4.4 E 41 63 22 34 1019.4 1019.4 0.0
22/04:30am 14.0 4.6 4.4 52 4.4 E 43 59 23 32 1019.4 1019.4 0.0
22/04:00am 14.4 5.7 4.1 50 4.7 E 39 57 21 31 1019.4 1019.4 0.0
22/03:33am 14.8 6.0 3.6 47 5.1 E 39 59 21 32 1019.3 1019.3 0.0
22/03:30am 14.8 6.4 3.6 47 5.1 E 37 52 20 28 1019.2 1019.2 0.0
22/03:00am 15.2 7.4 3.0 44 5.5 E 33 46 18 25 1019.2 1019.2 0.0
22/02:31am 15.7 7.8 2.2 40 6.0 E 33 54 18 29 1019.1 1019.1 0.0
22/02:30am 15.7 7.8 2.5 41 5.9 E 33 44 18 24 1019.1 1019.1 0.0
22/02:04am 16.2 7.8 1.7 37 6.4 E 35 54 19 29 1019.2 1019.2 0.0
22/02:00am 16.3 8.3 1.9 38 6.4 E 33 43 18 23 1019.1 1019.1 0.0
22/01:33am 16.9 8.5 1.6 35 6.8 E 35 54 19 29 1019.2 1019.2 0.0
22/01:30am 17.0 8.2 1.4 35 6.9 E 37 54 20 29 1019.2 1019.2 0.0
22/01:10am 17.4 9.4 0.7 32 7.3 E 32 52 17 28 1019.3 1019.3 0.0
22/01:00am 17.7 9.8 0.9 32 7.4 E 32 44 17 24 1019.1 1019.1 0.0
22/12:30am 18.2 11.2 1.8 33 7.4 ESE 28 48 15 26 1019.0 1019.0 0.0
22/12:00am 18.7 12.2 2.9 35 7.3 ESE 26 43 14 23 1019.1 1019.1 0.0
 
Date/Time
WST
Temp
°C
App
Temp
°C
Dew
Point
°C
Rel
Hum
%
Delta-T
°C
Wind Press
QNH
hPa
Press
MSL
hPa
Rain since
9am
mm
Dir  Spd
km/h
Gust
km/h
Spd
kts
Gust
kts
21/11:30pm 19.1 11.5 2.6 33 7.6 ESE 32 44 17 24 1018.8 1018.8 0.0
21/11:26pm 19.1 12.2 2.3 32 7.7 E 28 44 15 24 1018.9 1018.9 0.0
21/11:00pm 14.4 12.1 9.1 70 2.7 SSE 11 26 6 14 1018.8 1018.8 0.0
21/10:30pm 16.4 14.3 9.9 65 3.4 S 11 15 6 8 1018.7 1018.7 0.0
21/10:00pm 17.3 14.3 9.4 59 4.1 S 15 17 8 9 1018.9 1018.9 0.0
21/09:30pm 18.3 13.9 8.9 54 4.9 S 22 28 12 15 1019.0 1019.0 0.0
21/09:00pm 19.0 13.4 8.8 51 5.3 S 28 33 15 18 1018.8 1018.8 0.0
21/08:30pm 19.6 14.4 8.7 49 5.7 S 26 32 14 17 1018.4 1018.4 0.0
21/08:00pm 19.9 14.4 9.1 49 5.7 S 28 35 15 19 1017.8 1017.8 0.0
21/07:30pm 20.6 14.3 9.1 47 6.1 S 32 39 17 21 1017.7 1017.7 0.0
21/07:00pm 21.1 14.9 9.3 46 6.3 S 32 37 17 20 1017.4 1017.4 0.0
21/06:30pm 21.8 16.4 9.5 45 6.6 SSW 28 35 15 19 1017.2 1017.2 0.0
21/06:00pm 22.6 16.4 9.2 42 7.2 SSW 32 39 17 21 1016.8 1016.8 0.0
21/05:30pm 23.6 18.0 8.9 39 7.9 SW 28 39 15 21 1016.6 1016.6 0.0
21/05:00pm 24.2 17.8 8.7 37 8.3 SW 32 39 17 21 1016.4 1016.4 0.0
21/04:30pm 24.4 18.1 9.0 37 8.3 SW 32 39 17 21 1016.3 1016.3 0.0
21/04:00pm 24.4 17.5 8.8 37 8.4 SW 35 46 19 25 1016.2 1016.2 0.0
21/03:30pm 25.2 18.7 8.2 34 9.1 WSW 32 41 17 22 1016.2 1016.2 0.0
21/03:00pm 27.1 22.2 2.2 20 12.1 SSW 17 33 9 18 1016.2 1016.2 0.0
21/02:30pm 26.7 23.0 4.5 24 11.2 S 13 30 7 16 1016.2 1016.2 0.0
21/02:00pm 26.0 21.9 4.5 25 10.8 SSW 15 26 8 14 1016.3 1016.3 0.0
21/01:30pm 25.7 21.9 4.0 24 10.8 SSW 13 30 7 16 1016.6 1016.6 0.0
21/01:00pm 25.2 20.2 3.7 25 10.6 SSE 19 37 10 20 1017.1 1017.1 0.0
21/12:30pm 24.7 20.2 4.4 27 10.1 S 17 28 9 15 1017.4 1017.4 0.0
21/12:00pm 24.0 19.6 5.0 29 9.5 SE 17 26 9 14 1017.8 1017.8 0.0
21/11:30am 23.0 18.4 5.4 32 8.8 S 19 28 10 15 1018.3 1018.3 0.0
21/11:00am 22.5 18.3 5.8 34 8.4 S 17 28 9 15 1018.5 1018.5 0.0
21/10:30am 22.3 17.9 6.6 36 8.0 S 19 28 10 15 1018.6 1018.6 0.0
21/10:00am 21.5 17.5 6.8 38 7.5 S 17 26 9 14 1018.8 1018.8 0.0
21/09:30am 21.2 16.0 7.4 41 7.1 SSE 24 32 13 17 1019.1 1019.1 0.0
21/09:00am 21.0 16.0 7.9 43 6.8 S 24 32 13 17 1019.3 1019.3 0.0
21/08:30am 19.1 15.8 9.7 54 5.0 S 17 30 9 16 1019.3 1019.3 0.0
21/08:00am 18.6 15.2 10.6 59 4.3 S 19 26 10 14 1019.5 1019.5 0.0
21/07:30am 17.9 15.1 11.3 65 3.6 SSW 17 26 9 14 1019.5 1019.5 0.0
21/07:00am 16.7 13.4 11.5 71 2.8 SSW 20 26 11 14 1019.0 1019.0 0.0
21/06:30am 15.9 13.6 11.8 76 2.2 SSW 15 19 8 10 1018.7 1018.7 0.0
21/06:00am 14.5 12.8 12.5 88 1.1 S 13 17 7 9 1018.3 1018.3 0.0
21/05:30am 14.1 12.1 12.6 91 0.8 S 15 17 8 9 1018.1 1018.1 0.0
21/05:00am 14.3 11.9 12.7 90 0.9 S 17 20 9 11 1017.7 1017.7 0.0
21/04:30am 14.4 12.5 12.9 91 0.8 SSW 15 17 8 9 1017.4 1017.4 0.0
21/04:00am 14.5 12.6 13.0 91 0.8 S 15 19 8 10 1016.9 1016.9 0.0
21/03:30am 15.1 11.9 13.1 88 1.1 S 22 28 12 15 1016.6 1016.6 0.0
21/03:00am 15.5 11.9 13.2 86 1.3 S 24 33 13 18 1016.6 1016.6 0.0

Latest Capital City Observations: Canberra | Sydney | Melbourne | Brisbane | Adelaide | Perth | Hobart | Darwin

Other Formats:

Comma delimited format used in spreadsheet applications
http://www.bom.gov.au/fwo/IDW60901/IDW60901.94610.axf

JavaScript Object Notation format (JSON) in row-major order
http://www.bom.gov.au/fwo/IDW60901/IDW60901.94610.json